Time;durP1;ratioP1;P1;durP2;ratioP2;P2;SDS_P1;SDS_P2;PMS_P1;PMS_P2;Temp;Humidity;BMP_temperature;BMP_pressure;BME280_temperature;BME280_humidity;BME280_pressure;Samples;Min_cycle;Max_cycle;Signal;HPM_P1;HPM_P2
2022/09/15 00:01:19;;;;;;;21.60;16.70;;;13.80;99.90;;;;;;5026693;28;20084;-60
2022/09/15 00:03:44;;;;;;;21.67;15.90;;;13.80;99.90;;;;;;5026302;28;20403;-60
2022/09/15 00:06:10;;;;;;;24.85;15.80;;;13.70;99.90;;;;;;5015758;28;20394;-60
2022/09/15 00:08:37;;;;;;;18.27;14.80;;;13.70;99.90;;;;;;5023420;28;20585;-60
2022/09/15 00:11:07;;;;;;;21.92;15.48;;;13.60;99.90;;;;;;5020521;28;20496;-60
2022/09/15 00:13:35;;;;;;;17.42;14.55;;;13.60;99.90;;;;;;5022558;28;20148;-61
2022/09/15 00:16:01;;;;;;;21.67;15.45;;;13.60;99.90;;;;;;5024224;28;20143;-61
2022/09/15 00:18:27;;;;;;;19.30;15.35;;;13.40;99.90;;;;;;5021172;28;20057;-60
2022/09/15 00:20:52;;;;;;;18.85;15.38;;;13.50;99.90;;;;;;5024091;28;20033;-60
2022/09/15 00:23:18;;;;;;;19.75;15.38;;;13.60;99.90;;;;;;5022061;28;20026;-61
2022/09/15 00:25:46;;;;;;;21.23;15.40;;;13.50;99.90;;;;;;5029199;28;20105;-61
2022/09/15 00:28:13;;;;;;;18.70;14.45;;;13.40;99.90;;;;;;5024405;28;20057;-60
2022/09/15 00:30:41;;;;;;;18.25;14.20;;;13.30;99.90;;;;;;5018643;28;20450;-60
2022/09/15 00:33:06;;;;;;;17.33;13.50;;;13.30;99.90;;;;;;5024810;28;20507;-60
2022/09/15 00:35:39;;;;;;;18.85;14.05;;;13.40;99.90;;;;;;5024216;28;20041;-61
2022/09/15 00:38:06;;;;;;;19.73;14.00;;;13.30;99.90;;;;;;5017987;28;20392;-59
2022/09/15 00:40:33;;;;;;;17.05;14.05;;;13.30;99.90;;;;;;5020971;28;20060;-60
2022/09/15 00:42:58;;;;;;;17.98;12.98;;;13.20;99.90;;;;;;5027296;28;20110;-60
2022/09/15 00:45:24;;;;;;;18.95;13.90;;;13.20;99.90;;;;;;5019512;28;20320;-60
2022/09/15 00:47:51;;;;;;;21.40;15.07;;;13.20;99.90;;;;;;5021437;28;20436;-60
2022/09/15 00:50:19;;;;;;;19.00;14.45;;;13.20;99.90;;;;;;5015756;28;20029;-60
2022/09/15 00:52:54;;;;;;;21.77;13.20;;;13.20;99.90;;;;;;5023797;28;20037;-60
2022/09/15 00:55:30;;;;;;;17.33;14.32;;;13.30;99.90;;;;;;5020617;28;20042;-62
2022/09/15 00:58:13;;;;;;;21.65;15.02;;;13.20;99.90;;;;;;5023683;28;20060;-60
2022/09/15 01:00:50;;;;;;;18.13;14.45;;;13.10;99.90;;;;;;5009462;28;20567;-61
2022/09/15 01:03:16;;;;;;;18.55;13.57;;;13.20;99.90;;;;;;5019109;28;20037;-60
2022/09/15 01:05:47;;;;;;;18.50;14.18;;;13.20;99.90;;;;;;5021032;28;20041;-60
2022/09/15 01:08:32;;;;;;;20.63;14.13;;;13.10;99.90;;;;;;5025440;28;20037;-61
2022/09/15 01:10:58;;;;;;;20.08;13.65;;;13.10;99.90;;;;;;5021981;28;20033;-61
2022/09/15 01:13:24;;;;;;;16.13;13.50;;;13.10;99.90;;;;;;5020859;28;20532;-61
2022/09/15 01:16:20;;;;;;;17.08;13.98;;;13.10;99.90;;;;;;5024025;28;20461;-61
2022/09/15 01:19:08;;;;;;;17.80;13.35;;;13.00;99.90;;;;;;5023934;28;20030;-60
2022/09/15 01:21:46;;;;;;;21.08;13.63;;;13.00;99.90;;;;;;5021544;28;20151;-61
2022/09/15 01:24:42;;;;;;;18.77;14.25;;;13.00;99.90;;;;;;5017300;28;20040;-60
2022/09/15 01:27:51;;;;;;;19.15;13.80;;;13.00;99.90;;;;;;5021444;28;20026;-60
2022/09/15 01:30:22;;;;;;;20.08;14.25;;;13.00;99.90;;;;;;5022929;28;20037;-60
2022/09/15 01:33:19;;;;;;;18.95;14.38;;;13.00;99.90;;;;;;5020877;28;20647;-61
2022/09/15 01:36:24;;;;;;;21.85;14.95;;;13.10;99.90;;;;;;5014005;28;20493;-61
2022/09/15 01:39:02;;;;;;;23.25;14.98;;;13.00;99.90;;;;;;5022335;28;20498;-60
2022/09/15 01:41:50;;;;;;;19.50;14.13;;;13.00;99.90;;;;;;5028687;28;20049;-60
2022/09/15 01:44:23;;;;;;;22.33;14.63;;;13.00;99.90;;;;;;5000240;28;20036;-61
2022/09/15 01:46:55;;;;;;;22.55;15.20;;;13.00;99.90;;;;;;5002814;28;20083;-60
2022/09/15 01:49:34;;;;;;;19.27;14.50;;;13.00;99.90;;;;;;5022031;28;20466;-61
2022/09/15 01:52:00;;;;;;;22.50;13.88;;;13.00;99.90;;;;;;5013989;28;20393;-60
2022/09/15 01:54:31;;;;;;;19.40;13.77;;;13.00;99.90;;;;;;5023712;28;20519;-61
2022/09/15 01:56:57;;;;;;;19.58;13.55;;;13.00;99.90;;;;;;5026659;28;20030;-61
2022/09/15 01:59:24;;;;;;;19.83;13.77;;;13.00;99.90;;;;;;5030822;28;20045;-60
2022/09/15 02:02:13;;;;;;;17.73;13.82;;;12.90;99.90;;;;;;5025466;28;20037;-60
2022/09/15 02:04:48;;;;;;;22.25;14.20;;;12.90;99.90;;;;;;5024821;28;20793;-60
2022/09/15 02:07:52;;;;;;;19.65;14.00;;;12.90;99.90;;;;;;5010412;28;20116;-60
2022/09/15 02:10:35;;;;;;;20.05;13.70;;;12.90;99.90;;;;;;5026544;28;20021;-61
2022/09/15 02:13:10;;;;;;;20.70;14.40;;;12.50;99.90;;;;;;5025679;28;20033;-60
2022/09/15 02:15:47;;;;;;;17.75;13.45;;;12.70;99.90;;;;;;5009742;28;20408;-60
2022/09/15 02:18:21;;;;;;;20.25;13.48;;;12.70;99.90;;;;;;5025629;28;20022;-61
2022/09/15 02:20:51;;;;;;;22.63;15.02;;;12.70;99.90;;;;;;5025867;28;20057;-60
2022/09/15 02:23:25;;;;;;;17.65;13.65;;;12.70;99.90;;;;;;5026403;28;20059;-59
2022/09/15 02:25:54;;;;;;;17.40;13.73;;;12.70;99.90;;;;;;5013218;28;20038;-61
2022/09/15 02:28:25;;;;;;;18.95;15.07;;;12.80;99.90;;;;;;5012451;28;20040;-60
2022/09/15 02:30:54;;;;;;;19.33;14.25;;;12.80;99.90;;;;;;5007634;28;20037;-60
2022/09/15 02:33:23;;;;;;;19.30;13.85;;;12.80;99.90;;;;;;5030121;28;20098;-61
2022/09/15 02:35:51;;;;;;;17.60;13.55;;;12.90;99.90;;;;;;5027245;28;20086;-61
2022/09/15 02:38:16;;;;;;;22.10;15.05;;;12.90;99.90;;;;;;5026979;28;20524;-60
2022/09/15 02:40:43;;;;;;;24.88;16.25;;;12.90;99.90;;;;;;5026496;28;20037;-59
2022/09/15 02:43:12;;;;;;;25.35;15.13;;;12.90;99.90;;;;;;5029708;28;20083;-59
2022/09/15 02:45:38;;;;;;;25.08;17.02;;;13.00;99.90;;;;;;5021032;28;20037;-59
2022/09/15 02:48:04;;;;;;;25.88;17.83;;;13.10;99.90;;;;;;5026390;28;20048;-60
2022/09/15 02:50:30;;;;;;;24.67;16.80;;;13.00;99.90;;;;;;5020489;28;20033;-60
2022/09/15 02:52:56;;;;;;;25.05;16.88;;;13.10;99.90;;;;;;5025178;28;20026;-60
2022/09/15 02:55:27;;;;;;;27.63;18.13;;;13.10;99.90;;;;;;5022097;28;20037;-60
2022/09/15 02:57:54;;;;;;;23.65;16.85;;;13.30;99.90;;;;;;5033064;28;20033;-60
2022/09/15 03:00:20;;;;;;;22.23;16.30;;;13.30;99.90;;;;;;5021893;28;20030;-61
2022/09/15 03:02:51;;;;;;;23.00;16.75;;;13.20;99.90;;;;;;5025532;28;21288;-59
2022/09/15 03:05:19;;;;;;;24.70;15.90;;;13.30;99.90;;;;;;5030713;28;20025;-60
2022/09/15 03:07:45;;;;;;;26.42;17.35;;;13.30;99.90;;;;;;5023441;28;20045;-60
2022/09/15 03:10:11;;;;;;;26.27;16.77;;;13.30;99.90;;;;;;5026114;28;20115;-60
2022/09/15 03:12:49;;;;;;;25.55;16.98;;;13.30;99.90;;;;;;5025292;28;20452;-60
2022/09/15 03:15:18;;;;;;;24.75;17.02;;;13.30;99.90;;;;;;5027153;28;20043;-60
2022/09/15 03:17:45;;;;;;;27.95;17.77;;;13.40;99.90;;;;;;5025975;28;20044;-61
2022/09/15 03:20:14;;;;;;;32.22;19.33;;;13.60;99.90;;;;;;5027387;28;20116;-60
2022/09/15 03:22:39;;;;;;;34.05;20.08;;;13.90;99.90;;;;;;5030528;28;20032;-60
2022/09/15 03:25:06;;;;;;;31.70;20.33;;;13.90;99.90;;;;;;5023536;28;20473;-60
2022/09/15 03:27:33;;;;;;;30.70;20.15;;;14.00;99.90;;;;;;5023059;28;20125;-60
2022/09/15 03:29:59;;;;;;;32.58;20.08;;;14.00;99.90;;;;;;5022193;28;20053;-60
2022/09/15 03:32:25;;;;;;;35.47;20.85;;;13.70;99.90;;;;;;5032179;28;20087;-60
2022/09/15 03:34:50;;;;;;;36.72;21.23;;;13.80;99.90;;;;;;5023027;28;20025;-60
2022/09/15 03:37:16;;;;;;;32.95;21.00;;;13.90;99.90;;;;;;5026404;28;20135;-60
2022/09/15 03:39:42;;;;;;;31.95;20.45;;;14.00;99.90;;;;;;5027042;28;20037;-60
2022/09/15 03:42:08;;;;;;;34.10;19.88;;;13.90;99.90;;;;;;5027412;28;20117;-60
2022/09/15 03:44:34;;;;;;;34.95;20.90;;;13.80;99.90;;;;;;5022519;28;20026;-60
2022/09/15 03:47:00;;;;;;;36.10;20.13;;;13.80;99.90;;;;;;5017847;28;20092;-61
2022/09/15 03:49:26;;;;;;;35.38;20.73;;;13.90;99.90;;;;;;5021428;28;20421;-61
2022/09/15 03:51:51;;;;;;;30.50;19.80;;;14.00;99.90;;;;;;5025212;28;20160;-61
2022/09/15 03:54:18;;;;;;;30.27;21.02;;;14.00;99.90;;;;;;5024381;28;20025;-60
2022/09/15 03:56:47;;;;;;;37.28;21.67;;;14.10;99.90;;;;;;5024478;28;20029;-59
2022/09/15 03:59:14;;;;;;;33.15;21.25;;;14.20;99.90;;;;;;5026978;28;20033;-60
2022/09/15 04:01:40;;;;;;;35.67;21.70;;;14.10;99.90;;;;;;5023038;28;20136;-61
2022/09/15 04:04:06;;;;;;;37.72;22.33;;;14.20;99.90;;;;;;5021530;28;20167;-60
2022/09/15 04:06:31;;;;;;;36.65;21.35;;;14.30;99.90;;;;;;5024866;28;20116;-61
2022/09/15 04:08:59;;;;;;;32.67;20.55;;;14.20;99.90;;;;;;5028757;28;20057;-61
2022/09/15 04:11:25;;;;;;;34.50;21.73;;;14.20;99.90;;;;;;5018849;28;20082;-61
2022/09/15 04:13:52;;;;;;;35.95;21.80;;;14.20;99.90;;;;;;5003482;28;20068;-60
2022/09/15 04:16:21;;;;;;;38.55;20.27;;;14.20;99.90;;;;;;5007877;28;20038;-61
2022/09/15 04:18:49;;;;;;;37.45;22.80;;;14.20;99.90;;;;;;5023758;28;20045;-60
2022/09/15 04:21:17;;;;;;;41.20;22.33;;;14.20;99.90;;;;;;5022872;28;20041;-60
2022/09/15 04:23:43;;;;;;;36.10;21.08;;;14.30;99.90;;;;;;5023432;28;20182;-61
2022/09/15 04:26:30;;;;;;;30.35;21.13;;;14.20;99.90;;;;;;5027876;28;20473;-60
2022/09/15 04:28:55;;;;;;;31.83;20.27;;;14.20;99.90;;;;;;5023593;28;20033;-61
2022/09/15 04:31:21;;;;;;;30.73;20.55;;;14.20;99.90;;;;;;5024130;28;20037;-60
2022/09/15 04:33:50;;;;;;;29.52;19.50;;;14.20;99.90;;;;;;5022579;28;20124;-60
2022/09/15 04:36:21;;;;;;;32.60;20.85;;;14.10;99.90;;;;;;5011690;28;20934;-60
2022/09/15 04:38:48;;;;;;;31.15;21.08;;;14.20;99.90;;;;;;5020317;28;20392;-61
2022/09/15 04:41:14;;;;;;;36.55;20.85;;;14.20;99.90;;;;;;5022065;28;20056;-60
2022/09/15 04:43:40;;;;;;;29.23;19.90;;;14.20;99.90;;;;;;5022521;28;20045;-60
2022/09/15 04:46:06;;;;;;;30.95;20.98;;;14.20;99.90;;;;;;5025719;28;20040;-60
2022/09/15 04:48:32;;;;;;;33.53;19.52;;;14.10;99.90;;;;;;5018671;28;20473;-61
2022/09/15 04:51:03;;;;;;;31.52;19.77;;;14.10;99.90;;;;;;5022507;28;20431;-61
2022/09/15 04:53:29;;;;;;;31.83;19.02;;;14.20;99.90;;;;;;5022649;28;20497;-60
2022/09/15 04:56:05;;;;;;;30.08;19.35;;;14.20;99.90;;;;;;5033380;28;20094;-60
2022/09/15 04:58:36;;;;;;;31.95;20.20;;;14.30;99.90;;;;;;5024477;28;20033;-61
2022/09/15 05:01:10;;;;;;;29.25;19.17;;;14.30;99.90;;;;;;5021165;28;20523;-61
2022/09/15 05:03:36;;;;;;;31.00;20.45;;;14.30;99.90;;;;;;5020730;28;20044;-60
2022/09/15 05:06:03;;;;;;;35.22;21.30;;;14.30;99.90;;;;;;5024389;28;20033;-61
2022/09/15 05:08:29;;;;;;;32.60;20.10;;;14.30;99.90;;;;;;5004664;28;20033;-60
2022/09/15 05:11:03;;;;;;;31.48;21.73;;;14.20;99.90;;;;;;5027064;28;20100;-60
2022/09/15 05:13:29;;;;;;;32.30;20.10;;;14.30;99.90;;;;;;5015084;28;20045;-60
2022/09/15 05:15:54;;;;;;;31.98;20.67;;;14.30;99.90;;;;;;5024839;28;20045;-61
2022/09/15 05:18:21;;;;;;;31.30;21.10;;;14.30;99.90;;;;;;5025422;28;20033;-60
2022/09/15 05:20:46;;;;;;;31.00;20.10;;;14.20;99.90;;;;;;5022937;28;20471;-60
2022/09/15 05:23:12;;;;;;;26.08;18.42;;;14.20;99.90;;;;;;5033076;28;20124;-60
2022/09/15 05:25:38;;;;;;;32.03;20.95;;;14.20;99.90;;;;;;5025272;28;20513;-61
2022/09/15 05:28:04;;;;;;;32.00;21.92;;;14.20;99.90;;;;;;5021423;28;20055;-61
2022/09/15 05:30:30;;;;;;;28.85;20.67;;;14.30;99.90;;;;;;5021775;28;20037;-61
2022/09/15 05:32:56;;;;;;;29.63;19.38;;;14.30;99.90;;;;;;5021540;28;20033;-59
2022/09/15 05:35:22;;;;;;;33.75;20.30;;;14.20;99.90;;;;;;5023123;28;20493;-60
2022/09/15 05:37:48;;;;;;;32.85;20.80;;;14.30;99.90;;;;;;5023277;28;20029;-60
2022/09/15 05:40:14;;;;;;;32.67;21.05;;;14.30;99.90;;;;;;5022249;28;20508;-61
2022/09/15 05:42:39;;;;;;;35.10;21.55;;;14.30;99.90;;;;;;5017876;28;20404;-61
2022/09/15 05:45:06;;;;;;;36.78;21.58;;;14.30;99.90;;;;;;5022559;28;20680;-60
2022/09/15 05:47:31;;;;;;;35.17;21.65;;;14.40;99.90;;;;;;5013077;28;20033;-61
2022/09/15 05:49:57;;;;;;;35.22;22.17;;;14.60;99.90;;;;;;5019700;28;20044;-60
2022/09/15 05:52:23;;;;;;;37.30;21.58;;;14.60;99.90;;;;;;5020350;28;20065;-61
2022/09/15 05:54:48;;;;;;;33.17;21.83;;;14.50;99.90;;;;;;5021908;28;20049;-61
2022/09/15 06:17:24;;;;;;;41.95;24.70;;;14.30;99.90;;;;;;5048129;27;20536;-60
2022/09/15 06:19:50;;;;;;;42.35;24.15;;;14.70;99.90;;;;;;5056357;28;20626;-58
2022/09/15 06:22:15;;;;;;;36.30;22.30;;;14.60;99.90;;;;;;5057033;28;20032;-60
2022/09/15 06:24:41;;;;;;;33.05;22.83;;;14.60;99.90;;;;;;5055589;28;20032;-60
2022/09/15 06:27:06;;;;;;;30.40;21.30;;;14.90;99.90;;;;;;5056458;28;20075;-60
2022/09/15 06:29:32;;;;;;;39.20;23.70;;;14.90;99.90;;;;;;5052776;28;20129;-60
2022/09/15 06:32:01;;;;;;;39.33;24.15;;;14.90;99.90;;;;;;5054098;28;20044;-59
2022/09/15 06:34:32;;;;;;;40.58;26.17;;;15.00;99.90;;;;;;5055812;28;21968;-60
2022/09/15 06:36:58;;;;;;;43.58;27.33;;;15.10;99.90;;;;;;5055525;28;20036;-60
2022/09/15 06:39:25;;;;;;;33.85;24.05;;;15.10;99.90;;;;;;5052900;28;20037;-60
2022/09/15 06:41:51;;;;;;;39.65;23.52;;;14.90;99.90;;;;;;5072818;28;20463;-60
2022/09/15 06:44:17;;;;;;;37.97;23.90;;;15.10;99.90;;;;;;5048233;28;20029;-60
2022/09/15 06:46:43;;;;;;;39.63;25.58;;;15.10;99.90;;;;;;5053688;28;20141;-60
2022/09/15 06:49:08;;;;;;;37.38;25.08;;;15.20;99.90;;;;;;5057430;28;20087;-60
2022/09/15 06:51:35;;;;;;;41.85;26.13;;;15.10;99.90;;;;;;5068263;28;20044;-60
2022/09/15 06:54:04;;;;;;;40.75;25.63;;;15.20;99.90;;;;;;5054383;28;20571;-60
2022/09/15 06:56:31;;;;;;;41.40;25.45;;;15.20;99.90;;;;;;5055882;28;20817;-60
2022/09/15 06:58:58;;;;;;;41.75;25.92;;;14.90;99.90;;;;;;5055603;28;20037;-60
2022/09/15 07:01:27;;;;;;;41.65;27.45;;;15.10;99.90;;;;;;5054612;28;20373;-61
2022/09/15 07:03:53;;;;;;;39.90;26.48;;;15.30;99.90;;;;;;5055789;28;20499;-61
2022/09/15 07:06:19;;;;;;;43.28;27.50;;;15.20;99.90;;;;;;5057589;28;20037;-60
2022/09/15 07:08:46;;;;;;;43.97;26.52;;;15.20;99.90;;;;;;5059978;28;20101;-61
2022/09/15 07:11:12;;;;;;;38.75;27.20;;;15.20;99.90;;;;;;5054189;28;20161;-60
2022/09/15 07:13:38;;;;;;;39.55;26.75;;;15.20;99.90;;;;;;5031474;28;20033;-61
2022/09/15 07:16:06;;;;;;;43.60;27.25;;;15.20;99.90;;;;;;5056758;28;20131;-61
2022/09/15 07:18:32;;;;;;;47.92;27.63;;;15.40;99.90;;;;;;5045188;28;20045;-60
2022/09/15 07:21:02;;;;;;;43.55;27.38;;;15.50;99.90;;;;;;5043233;28;20056;-60
2022/09/15 07:23:28;;;;;;;39.38;26.67;;;15.50;99.90;;;;;;5042380;28;20033;-61
2022/09/15 07:26:20;;;;;;;40.35;26.17;;;15.50;99.90;;;;;;5042467;28;20053;-60
2022/09/15 07:28:51;;;;;;;40.22;25.52;;;15.50;99.90;;;;;;5042155;28;20041;-60
2022/09/15 07:31:19;;;;;;;40.47;25.85;;;15.60;99.90;;;;;;5046083;28;20499;-60
2022/09/15 07:33:45;;;;;;;41.60;26.25;;;15.70;99.90;;;;;;5042206;28;20120;-60
2022/09/15 07:36:11;;;;;;;42.65;27.17;;;15.90;99.90;;;;;;5042226;28;20060;-61
2022/09/15 07:38:43;;;;;;;43.58;26.60;;;16.10;99.90;;;;;;5041996;28;20114;-60
2022/09/15 07:41:14;;;;;;;40.97;26.15;;;16.00;99.90;;;;;;5036551;28;20048;-61
2022/09/15 07:43:44;;;;;;;34.38;24.95;;;16.00;99.90;;;;;;5038929;28;20502;-61
2022/09/15 07:46:09;;;;;;;38.30;23.73;;;16.10;99.90;;;;;;5042855;28;20091;-61
2022/09/15 07:48:35;;;;;;;34.70;23.33;;;15.90;99.90;;;;;;5038316;28;20467;-60
2022/09/15 07:51:00;;;;;;;35.63;23.80;;;15.80;99.90;;;;;;5043666;28;20629;-61
2022/09/15 07:53:30;;;;;;;32.40;22.00;;;15.90;99.90;;;;;;5044802;28;20049;-61
2022/09/15 07:55:55;;;;;;;32.08;22.15;;;15.90;99.90;;;;;;5042849;28;20045;-60
2022/09/15 07:58:21;;;;;;;28.83;20.95;;;16.00;99.90;;;;;;5042952;28;20051;-61
2022/09/15 08:00:47;;;;;;;28.23;19.92;;;16.00;99.90;;;;;;5038854;28;20336;-61
2022/09/15 08:03:14;;;;;;;26.67;19.40;;;16.10;99.90;;;;;;5038460;28;20128;-61
2022/09/15 08:05:39;;;;;;;27.20;19.38;;;16.30;99.90;;;;;;5039657;28;20151;-61
2022/09/15 08:08:05;;;;;;;27.90;18.55;;;16.40;99.90;;;;;;5042067;28;20147;-61
2022/09/15 08:10:31;;;;;;;26.83;17.92;;;16.50;99.90;;;;;;5037431;28;20068;-60
2022/09/15 08:13:00;;;;;;;25.15;18.35;;;16.40;99.90;;;;;;5038945;28;20045;-61
2022/09/15 08:15:26;;;;;;;27.48;18.35;;;16.40;99.90;;;;;;5043290;28;20061;-61
2022/09/15 08:17:52;;;;;;;26.55;17.58;;;16.50;99.90;;;;;;5035013;28;20064;-61
2022/09/15 08:20:18;;;;;;;24.83;17.25;;;16.40;99.90;;;;;;5038213;28;20033;-61
2022/09/15 08:22:44;;;;;;;22.40;14.73;;;16.50;99.90;;;;;;5031383;28;20408;-61
2022/09/15 08:25:11;;;;;;;25.77;15.13;;;16.50;99.90;;;;;;5034217;28;20040;-61
2022/09/15 08:27:37;;;;;;;22.50;14.50;;;16.50;99.90;;;;;;5038621;28;20061;-61
2022/09/15 08:30:04;;;;;;;21.00;14.00;;;16.60;99.90;;;;;;5038989;28;20187;-60
2022/09/15 08:32:30;;;;;;;21.85;13.25;;;16.60;99.90;;;;;;5040473;28;20383;-61
2022/09/15 08:34:55;;;;;;;17.65;10.73;;;16.90;99.90;;;;;;5040713;28;20057;-61
2022/09/15 08:37:21;;;;;;;14.73;9.95;;;16.80;99.90;;;;;;5037771;28;20087;-61
2022/09/15 08:39:47;;;;;;;19.83;12.18;;;16.90;99.90;;;;;;5040108;28;20032;-61
2022/09/15 08:42:18;;;;;;;21.55;13.43;;;17.10;99.90;;;;;;5038441;28;20120;-61
2022/09/15 08:45:01;;;;;;;20.73;12.70;;;17.30;99.90;;;;;;5028676;28;20381;-61
2022/09/15 08:47:43;;;;;;;18.52;13.77;;;17.40;99.90;;;;;;5038422;28;20037;-61
2022/09/15 08:50:28;;;;;;;17.83;11.70;;;17.50;99.90;;;;;;5034941;28;20025;-61
2022/09/15 08:53:05;;;;;;;18.50;10.45;;;17.60;99.90;;;;;;5040887;28;20040;-61
2022/09/15 08:55:57;;;;;;;14.38;9.90;;;17.70;99.90;;;;;;5040469;28;20056;-62
2022/09/15 08:58:27;;;;;;;12.98;8.10;;;17.70;99.90;;;;;;5039677;28;20048;-61
2022/09/15 09:01:16;;;;;;;10.43;6.72;;;17.70;99.90;;;;;;5040122;28;20045;-61
2022/09/15 09:03:48;;;;;;;16.48;5.25;;;17.80;99.90;;;;;;5038056;28;20022;-61
2022/09/15 09:06:33;;;;;;;9.77;5.32;;;17.70;99.90;;;;;;5041225;28;20063;-60
2022/09/15 09:09:07;;;;;;;11.52;4.55;;;17.80;99.90;;;;;;5024713;28;20122;-61
2022/09/15 09:12:08;;;;;;;13.15;5.45;;;17.80;99.90;;;;;;5039716;28;20119;-61
2022/09/15 09:14:52;;;;;;;13.20;5.88;;;17.50;99.90;;;;;;5040252;28;20037;-61
2022/09/15 09:17:59;;;;;;;13.45;6.47;;;17.70;99.90;;;;;;5034489;28;20061;-61
2022/09/15 09:20:33;;;;;;;16.17;7.97;;;17.90;99.90;;;;;;5019796;28;20032;-60
2022/09/15 09:23:02;;;;;;;15.45;6.78;;;18.00;99.90;;;;;;5024457;28;20162;-61
2022/09/15 09:25:28;;;;;;;13.40;5.32;;;18.00;99.90;;;;;;5038110;28;20051;-61
2022/09/15 09:27:57;;;;;;;10.15;5.30;;;18.10;99.90;;;;;;5043832;28;20480;-61
2022/09/15 09:30:24;;;;;;;12.13;4.22;;;18.20;99.90;;;;;;5038102;28;20040;-62
2022/09/15 09:32:49;;;;;;;10.63;5.30;;;18.20;99.90;;;;;;5043543;28;20037;-61
2022/09/15 09:35:23;;;;;;;13.50;4.43;;;18.30;99.90;;;;;;5038590;28;20045;-61
2022/09/15 09:37:51;;;;;;;8.23;3.50;;;18.40;99.90;;;;;;5040242;28;20138;-61
2022/09/15 09:40:18;;;;;;;9.52;3.17;;;18.40;99.90;;;;;;5042372;28;20039;-61
2022/09/15 09:42:44;;;;;;;9.05;2.70;;;18.10;99.90;;;;;;5039669;28;20037;-61
2022/09/15 09:45:15;;;;;;;9.02;2.65;;;18.20;99.90;;;;;;5040465;28;20055;-61
2022/09/15 09:47:41;;;;;;;10.57;2.42;;;18.30;99.90;;;;;;5031637;28;20068;-61
2022/09/15 09:50:34;;;;;;;10.73;2.30;;;18.30;99.90;;;;;;5036014;28;20032;-61
2022/09/15 09:53:15;;;;;;;8.93;2.15;;;18.20;99.90;;;;;;5037189;28;20155;-61
2022/09/15 09:55:40;;;;;;;10.55;2.80;;;18.30;99.90;;;;;;5041567;28;20114;-61
2022/09/15 09:58:21;;;;;;;7.00;2.83;;;18.30;99.90;;;;;;5039773;28;20178;-61
2022/09/15 10:00:47;;;;;;;8.70;3.35;;;18.10;99.90;;;;;;5036103;28;20041;-61
2022/09/15 10:03:21;;;;;;;7.43;3.72;;;18.20;99.90;;;;;;5040894;28;20388;-62
2022/09/15 10:06:23;;;;;;;8.93;3.92;;;18.40;99.90;;;;;;5039832;28;20041;-61
2022/09/15 10:08:55;;;;;;;11.23;3.30;;;18.40;99.90;;;;;;5024093;28;20400;-61
2022/09/15 10:11:21;;;;;;;7.30;2.60;;;18.20;99.90;;;;;;5038944;28;20029;-62
2022/09/15 10:13:53;;;;;;;9.88;3.30;;;18.20;99.90;;;;;;5039201;28;20493;-61
2022/09/15 10:16:19;;;;;;;8.55;3.50;;;18.20;99.90;;;;;;5034646;28;20400;-62
2022/09/15 10:18:48;;;;;;;9.85;5.00;;;18.40;99.90;;;;;;5040330;28;20123;-62
2022/09/15 10:21:14;;;;;;;20.02;11.25;;;18.50;99.90;;;;;;5038612;28;20088;-61
2022/09/15 10:23:42;;;;;;;7.93;4.25;;;18.40;99.90;;;;;;5040702;28;20085;-62
2022/09/15 10:26:21;;;;;;;12.27;4.50;;;18.40;99.90;;;;;;5038106;28;20138;-62
2022/09/15 10:29:16;;;;;;;8.90;3.95;;;18.50;99.90;;;;;;5037410;28;20415;-62
2022/09/15 10:31:43;;;;;;;9.02;3.72;;;18.70;99.90;;;;;;5036108;28;20437;-62
2022/09/15 10:34:27;;;;;;;9.07;3.60;;;18.80;99.90;;;;;;5041339;28;20166;-62
2022/09/15 10:36:59;;;;;;;7.68;2.53;;;18.80;99.90;;;;;;5036921;28;20036;-62
2022/09/15 10:39:52;;;;;;;8.70;2.33;;;18.70;99.90;;;;;;5037665;28;20041;-62
2022/09/15 10:42:41;;;;;;;6.68;2.78;;;18.50;99.90;;;;;;5037947;28;20036;-62
2022/09/15 10:45:17;;;;;;;9.63;2.83;;;18.60;99.90;;;;;;5034834;28;20236;-62
2022/09/15 10:47:56;;;;;;;5.10;2.65;;;18.70;99.90;;;;;;5037670;28;20029;-61
2022/09/15 10:50:43;;;;;;;8.45;2.88;;;18.60;99.90;;;;;;5038908;28;20086;-61
2022/09/15 10:53:20;;;;;;;7.00;2.63;;;18.50;99.90;;;;;;5041264;28;20041;-61
2022/09/15 10:56:09;;;;;;;5.93;2.90;;;18.40;99.90;;;;;;5041433;28;20029;-61
2022/09/15 10:59:18;;;;;;;8.32;2.60;;;18.30;99.90;;;;;;5042558;28;20045;-61
2022/09/15 11:02:09;;;;;;;10.98;2.30;;;18.30;99.90;;;;;;5040621;28;20037;-61
2022/09/15 11:04:58;;;;;;;8.88;2.38;;;18.30;99.90;;;;;;5039578;28;20175;-61
2022/09/15 11:07:47;;;;;;;8.88;2.58;;;18.00;99.90;;;;;;5046733;28;20488;-61
2022/09/15 11:10:35;;;;;;;9.27;1.80;;;18.10;99.90;;;;;;5039756;28;20136;-61
2022/09/15 11:13:24;;;;;;;6.78;1.73;;;18.10;99.90;;;;;;5042260;28;20033;-61
2022/09/15 11:16:28;;;;;;;8.07;1.50;;;18.10;99.90;;;;;;5052995;28;20206;-61
2022/09/15 11:19:30;;;;;;;11.18;1.83;;;17.90;99.90;;;;;;5044127;28;20337;-62
2022/09/15 11:22:11;;;;;;;5.15;1.45;;;18.00;99.90;;;;;;5045132;28;20052;-61
2022/09/15 11:24:52;;;;;;;8.90;1.65;;;18.10;99.90;;;;;;5041639;28;20048;-61
2022/09/15 11:27:34;;;;;;;7.57;1.60;;;18.00;99.90;;;;;;5044052;28;20446;-61
2022/09/15 11:30:19;;;;;;;4.95;1.30;;;18.10;99.90;;;;;;5043128;28;20059;-61
2022/09/15 11:33:21;;;;;;;8.38;1.65;;;18.10;99.90;;;;;;5041077;28;20033;-61
2022/09/15 11:36:06;;;;;;;8.98;1.70;;;18.20;99.90;;;;;;5042585;28;20056;-61
2022/09/15 11:38:39;;;;;;;8.40;1.83;;;18.30;99.90;;;;;;5040827;28;20068;-61
2022/09/15 11:41:25;;;;;;;6.30;1.70;;;18.30;99.90;;;;;;5042452;28;20028;-60
2022/09/15 11:44:18;;;;;;;17.58;7.72;;;18.30;99.90;;;;;;5042596;28;20514;-61
2022/09/15 11:47:04;;;;;;;8.60;2.07;;;18.20;99.90;;;;;;5039166;28;20037;-61
2022/09/15 11:49:51;;;;;;;8.98;1.60;;;18.20;99.90;;;;;;5038102;28;20139;-61
2022/09/15 11:52:48;;;;;;;10.60;2.05;;;17.90;99.90;;;;;;5039534;28;20435;-61
2022/09/15 11:55:26;;;;;;;7.38;1.70;;;17.70;99.90;;;;;;5040395;28;20170;-61
2022/09/15 11:58:19;;;;;;;12.63;2.10;;;17.50;99.90;;;;;;5043852;28;20037;-61
2022/09/15 12:00:58;;;;;;;10.95;2.28;;;17.10;99.90;;;;;;5043939;28;20403;-61
2022/09/15 12:03:36;;;;;;;10.35;2.42;;;17.10;99.90;;;;;;5041918;28;20033;-61
2022/09/15 12:06:31;;;;;;;13.93;2.67;;;17.00;99.90;;;;;;5041788;28;20041;-60
2022/09/15 12:09:05;;;;;;;7.45;2.10;;;17.10;99.90;;;;;;5041718;28;20048;-61
2022/09/15 12:11:35;;;;;;;10.38;2.55;;;17.10;99.90;;;;;;5042339;28;20077;-61
2022/09/15 12:14:03;;;;;;;12.43;3.03;;;17.20;99.90;;;;;;5043788;28;20427;-61
2022/09/15 12:16:30;;;;;;;13.25;2.92;;;17.30;99.90;;;;;;5040955;28;20110;-61
2022/09/15 12:19:10;;;;;;;6.22;2.40;;;17.30;99.90;;;;;;5047304;28;20108;-61
2022/09/15 12:22:01;;;;;;;9.20;2.80;;;17.40;99.90;;;;;;5039117;28;20112;-61
2022/09/15 12:24:51;;;;;;;10.80;2.95;;;17.20;99.90;;;;;;5037702;28;20071;-61
2022/09/15 12:27:19;;;;;;;10.25;2.72;;;17.40;99.90;;;;;;5037618;28;20041;-61
2022/09/15 12:29:55;;;;;;;9.27;2.63;;;17.30;99.90;;;;;;5042285;28;20028;-61
2022/09/15 12:32:28;;;;;;;13.80;2.95;;;17.20;99.90;;;;;;5041107;28;20507;-61
2022/09/15 12:35:04;;;;;;;7.47;2.73;;;17.30;99.90;;;;;;5056156;28;20116;-61
2022/09/15 12:37:44;;;;;;;10.75;2.90;;;17.10;99.90;;;;;;5041721;28;20181;-61
2022/09/15 12:40:28;;;;;;;7.05;2.38;;;17.10;99.90;;;;;;5039312;28;20112;-61
2022/09/15 12:42:55;;;;;;;9.10;2.80;;;17.20;99.90;;;;;;5040093;28;20209;-60
2022/09/15 12:45:26;;;;;;;14.68;3.22;;;17.30;99.90;;;;;;5042139;28;20033;-61
2022/09/15 12:48:00;;;;;;;8.20;3.03;;;17.10;99.90;;;;;;5036154;28;20043;-61
2022/09/15 12:50:35;;;;;;;10.95;3.30;;;17.20;99.90;;;;;;5040630;28;20480;-60
2022/09/15 12:53:11;;;;;;;8.88;2.53;;;17.30;99.90;;;;;;5057971;28;20033;-61
2022/09/15 12:55:50;;;;;;;12.63;2.63;;;17.20;99.90;;;;;;5038751;28;20043;-61
2022/09/15 12:58:19;;;;;;;8.40;2.42;;;17.40;99.90;;;;;;5044578;28;20399;-61
2022/09/15 13:00:46;;;;;;;9.35;2.60;;;17.70;99.90;;;;;;5037121;28;20044;-61
2022/09/15 13:03:28;;;;;;;7.10;2.08;;;17.60;99.90;;;;;;5039994;28;20025;-61
2022/09/15 13:06:15;;;;;;;6.93;2.33;;;17.70;99.90;;;;;;5039865;28;20044;-61
2022/09/15 13:08:54;;;;;;;5.07;2.17;;;17.40;99.90;;;;;;5038886;28;20037;-61
2022/09/15 13:11:33;;;;;;;9.32;2.47;;;17.50;99.90;;;;;;5038941;28;20033;-61
2022/09/15 13:14:07;;;;;;;10.90;2.83;;;17.70;99.90;;;;;;5043380;28;20067;-60
2022/09/15 13:16:53;;;;;;;9.05;2.83;;;17.70;99.90;;;;;;5034011;28;20045;-61
2022/09/15 13:19:40;;;;;;;11.60;3.28;;;17.60;99.90;;;;;;5037927;28;20485;-61
2022/09/15 13:22:30;;;;;;;12.23;2.83;;;17.50;99.90;;;;;;5033297;28;20033;-61